Time;durP1;ratioP1;P1;durP2;ratioP2;P2;SDS_P1;SDS_P2;PMS_P1;PMS_P2;Temp;Humidity;BMP_temperature;BMP_pressure;BME280_temperature;BME280_humidity;BME280_pressure;Samples;Min_cycle;Max_cycle;Signal;HPM_P1;HPM_P2
2022/12/29 00:02:07;;;;;;;0.68;0.20;;;17.50;64.70;;;;;;7406276;19;19918;-63
2022/12/29 00:04:36;;;;;;;0.50;0.10;;;17.50;64.70;;;;;;7405657;19;19918;-64
2022/12/29 00:07:06;;;;;;;0.90;0.28;;;17.50;64.80;;;;;;7404761;19;19915;-63
2022/12/29 00:09:38;;;;;;;0.65;0.10;;;17.50;64.80;;;;;;7406475;19;19923;-63
2022/12/29 00:12:07;;;;;;;0.75;0.13;;;17.50;64.80;;;;;;7405001;19;19911;-63
2022/12/29 00:17:18;;;;;;;0.65;0.32;;;17.50;64.80;;;;;;7406606;19;19919;-63
2022/12/29 00:36:20;;;;;;;0.38;0.10;;;17.80;64.70;;;;;;7405284;19;19918;-63
2022/12/29 00:44:20;;;;;;;0.68;0.10;;;18.00;64.50;;;;;;7405609;19;19930;-63
2022/12/29 00:46:49;;;;;;;0.45;0.10;;;18.00;64.50;;;;;;7405933;19;19996;-63
2022/12/29 00:52:01;;;;;;;0.40;0.10;;;18.00;64.40;;;;;;7403905;19;19914;-63
2022/12/29 00:54:33;;;;;;;0.57;0.22;;;18.00;64.40;;;;;;7403815;19;19923;-63
2022/12/29 00:57:06;;;;;;;0.60;0.10;;;18.00;64.50;;;;;;7402994;19;19918;-63
2022/12/29 00:59:37;;;;;;;0.60;0.10;;;18.00;64.50;;;;;;7405094;19;19907;-64
2022/12/29 01:02:07;;;;;;;0.73;0.35;;;17.90;64.50;;;;;;7403695;19;19933;-63
2022/12/29 01:04:36;;;;;;;;;;;17.90;64.50;;;;;;7406592;19;19918;-63
2022/12/29 01:07:06;;;;;;;0.47;0.13;;;17.90;64.60;;;;;;7404316;19;19925;-64
2022/12/29 01:12:40;;;;;;;0.45;0.30;;;17.90;64.50;;;;;;7402934;19;20028;-64
2022/12/29 01:15:11;;;;;;;0.85;0.10;;;17.90;64.60;;;;;;7404081;19;19915;-63
2022/12/29 01:17:42;;;;;;;0.52;0.10;;;17.80;64.60;;;;;;7406881;19;20344;-63
2022/12/29 01:20:13;;;;;;;0.52;0.22;;;17.80;64.60;;;;;;7403112;19;20257;-63
2022/12/29 01:22:43;;;;;;;1.20;0.47;;;17.80;64.60;;;;;;7404093;19;19914;-63
2022/12/29 01:25:12;;;;;;;0.93;0.20;;;17.80;64.80;;;;;;7403958;19;20558;-63
2022/12/29 01:27:44;;;;;;;0.70;0.43;;;17.70;64.70;;;;;;7403740;19;20259;-64
2022/12/29 01:30:14;;;;;;;0.73;0.13;;;17.70;64.80;;;;;;7402365;19;19935;-64
2022/12/29 01:32:43;;;;;;;0.90;0.15;;;17.70;64.90;;;;;;7399333;19;19944;-63
2022/12/29 01:35:13;;;;;;;0.82;0.10;;;17.60;64.90;;;;;;7404197;19;19937;-63
2022/12/29 01:37:42;;;;;;;0.55;0.03;;;17.60;65.00;;;;;;7403528;19;20348;-63
2022/12/29 01:40:13;;;;;;;0.40;0.10;;;17.60;65.10;;;;;;7403574;19;19911;-63
2022/12/29 01:42:45;;;;;;;0.88;0.22;;;17.60;65.10;;;;;;7403230;19;20009;-63
2022/12/29 01:45:16;;;;;;;0.63;0.10;;;17.60;65.20;;;;;;7403722;19;20367;-63
2022/12/29 01:47:48;;;;;;;0.50;0.20;;;17.50;65.20;;;;;;7403560;19;19948;-63
2022/12/29 01:50:23;;;;;;;0.80;0.20;;;17.50;65.30;;;;;;7403607;19;19971;-63
2022/12/29 01:52:58;;;;;;;0.40;0.10;;;17.50;65.30;;;;;;7400822;19;20332;-63
2022/12/29 01:55:29;;;;;;;0.40;0.10;;;17.50;65.30;;;;;;7402770;19;20363;-63
2022/12/29 01:58:07;;;;;;;0.52;0.38;;;17.50;65.30;;;;;;7402761;19;19978;-63
2022/12/29 02:00:36;;;;;;;0.65;0.10;;;17.50;65.30;;;;;;7403311;19;20407;-63
2022/12/29 02:03:07;;;;;;;;;;;17.60;65.40;;;;;;7404608;19;19922;-63
2022/12/29 02:05:41;;;;;;;0.50;0.10;;;17.60;65.40;;;;;;7404243;19;19915;-63
2022/12/29 02:08:11;;;;;;;0.63;0.35;;;17.60;65.30;;;;;;7409649;19;19914;-63
2022/12/29 02:10:43;;;;;;;0.75;0.20;;;17.70;65.30;;;;;;7409828;19;19914;-63
2022/12/29 02:13:17;;;;;;;0.95;0.43;;;17.70;65.20;;;;;;7407730;19;20252;-63
2022/12/29 02:16:08;;;;;;;1.67;0.60;;;17.80;65.30;;;;;;7407532;19;19928;-63
2022/12/29 02:18:46;;;;;;;0.55;0.10;;;17.80;65.20;;;;;;7409491;19;19911;-63
2022/12/29 02:21:54;;;;;;;0.82;0.20;;;17.90;65.20;;;;;;7409401;19;19918;-63
2022/12/29 02:24:50;;;;;;;0.63;0.22;;;17.90;65.10;;;;;;7409198;19;19931;-64
2022/12/29 02:27:51;;;;;;;1.05;0.43;;;18.00;65.10;;;;;;7407542;19;19922;-63
2022/12/29 02:30:42;;;;;;;0.50;0.10;;;18.00;65.00;;;;;;7408840;19;19918;-63
2022/12/29 02:33:22;;;;;;;0.50;0.22;;;18.10;65.00;;;;;;7408666;19;19923;-63
2022/12/29 02:36:00;;;;;;;0.70;0.20;;;18.00;64.90;;;;;;7409145;19;19938;-63
2022/12/29 02:38:41;;;;;;;1.08;0.22;;;18.00;64.90;;;;;;7408807;19;19919;-63
2022/12/29 02:41:25;;;;;;;1.13;0.73;;;18.00;64.90;;;;;;7408551;19;19914;-63
2022/12/29 02:44:00;;;;;;;0.68;0.32;;;18.00;64.90;;;;;;7407796;19;19922;-63
2022/12/29 02:46:38;;;;;;;0.63;0.10;;;18.00;64.90;;;;;;7408707;19;19942;-64
2022/12/29 02:49:14;;;;;;;0.80;0.50;;;18.00;64.90;;;;;;7408303;19;19987;-63
2022/12/29 02:51:53;;;;;;;1.00;0.82;;;18.00;64.90;;;;;;7407321;19;19921;-64
2022/12/29 02:57:04;;;;;;;0.43;0.13;;;17.90;64.60;;;;;;7408175;19;19990;-63
2022/12/29 02:59:33;;;;;;;0.90;0.55;;;17.90;65.00;;;;;;7408280;19;20364;-63
2022/12/29 03:02:20;;;;;;;1.02;0.08;;;17.90;65.00;;;;;;7407935;19;19915;-63
2022/12/29 03:05:17;;;;;;;0.45;0.13;;;17.90;65.10;;;;;;7407235;19;19915;-64
2022/12/29 03:07:55;;;;;;;0.70;0.10;;;17.80;65.10;;;;;;7408149;19;19928;-63
2022/12/29 03:10:34;;;;;;;0.68;0.20;;;17.80;65.10;;;;;;7407500;19;19918;-63
2022/12/29 03:16:07;;;;;;;0.82;0.10;;;17.70;65.20;;;;;;7408480;19;19926;-63
2022/12/29 03:18:48;;;;;;;0.60;0.13;;;17.70;65.30;;;;;;7407584;19;19919;-63
2022/12/29 03:22:26;;;;;;;0.60;0.10;;;17.70;65.40;;;;;;7407845;19;19914;-63
2022/12/29 03:24:15;;;;;;;0.68;0.10;;;17.70;65.40;;;;;;7407228;19;19918;-63
2022/12/29 03:26:46;;;;;;;;;;;17.60;65.50;;;;;;7409536;19;19918;-63
2022/12/29 03:29:19;;;;;;;0.45;0.20;;;17.60;65.60;;;;;;7405651;19;19942;-63
2022/12/29 03:31:50;;;;;;;0.60;0.00;;;17.60;66.30;;;;;;7406076;19;20361;-63
2022/12/29 03:34:24;;;;;;;0.70;0.45;;;17.50;65.70;;;;;;7406728;19;19927;-63
2022/12/29 03:36:56;;;;;;;0.70;0.20;;;17.50;65.70;;;;;;7407194;19;19929;-63
2022/12/29 03:39:28;;;;;;;0.60;0.13;;;17.50;65.70;;;;;;7407044;19;19986;-63
2022/12/29 03:42:03;;;;;;;0.90;0.30;;;17.50;65.80;;;;;;7406976;19;19942;-64
2022/12/29 03:44:39;;;;;;;0.82;0.47;;;17.50;65.80;;;;;;7408805;19;19923;-63
2022/12/29 03:47:09;;;;;;;1.20;0.10;;;17.50;65.90;;;;;;7407089;19;19919;-63
2022/12/29 03:49:42;;;;;;;0.63;0.13;;;17.60;65.90;;;;;;7406851;19;20395;-63
2022/12/29 03:52:11;;;;;;;1.23;0.35;;;17.60;65.90;;;;;;7405737;19;19930;-64
2022/12/29 03:54:40;;;;;;;0.40;0.00;;;17.60;65.90;;;;;;7406881;19;19919;-63
2022/12/29 03:57:11;;;;;;;0.50;0.20;;;17.60;65.90;;;;;;7407041;19;19922;-63
2022/12/29 03:59:40;;;;;;;1.45;0.80;;;17.70;65.90;;;;;;7407409;19;19911;-63
2022/12/29 04:02:09;;;;;;;;;;;17.70;65.90;;;;;;7408726;19;20256;-63
2022/12/29 04:04:41;;;;;;;0.30;0.10;;;17.70;66.00;;;;;;7405970;19;20027;-63
2022/12/29 04:07:11;;;;;;;0.93;0.85;;;17.80;65.90;;;;;;7406878;19;19967;-63
2022/12/29 04:09:40;;;;;;;0.40;0.13;;;17.80;65.80;;;;;;7406506;19;19915;-64
2022/12/29 04:12:09;;;;;;;0.68;0.13;;;17.90;65.70;;;;;;7405190;19;19995;-63
2022/12/29 04:14:38;;;;;;;1.60;0.43;;;17.90;65.60;;;;;;7409488;19;19925;-63
2022/12/29 04:17:07;;;;;;;0.88;0.22;;;18.00;65.60;;;;;;7406261;19;20331;-63
2022/12/29 04:19:36;;;;;;;0.70;0.10;;;18.00;65.50;;;;;;7404955;19;19919;-63
2022/12/29 04:22:08;;;;;;;0.55;0.22;;;18.00;65.50;;;;;;7405883;19;19915;-64
2022/12/29 04:24:37;;;;;;;0.45;0.10;;;18.10;65.50;;;;;;7406170;19;19918;-63
2022/12/29 04:27:08;;;;;;;1.00;0.55;;;18.00;65.50;;;;;;7405830;19;19914;-63
2022/12/29 04:29:38;;;;;;;0.40;0.10;;;18.00;65.50;;;;;;7402384;19;19934;-64
2022/12/29 04:32:07;;;;;;;0.40;0.10;;;18.00;65.50;;;;;;7404737;19;19918;-63
2022/12/29 04:34:37;;;;;;;0.52;0.43;;;18.00;65.50;;;;;;7405035;19;19925;-63
2022/12/29 04:37:10;;;;;;;0.30;0.03;;;18.00;65.50;;;;;;7404340;19;19957;-63
2022/12/29 04:39:39;;;;;;;1.13;0.95;;;17.90;65.40;;;;;;7404099;19;19985;-63
2022/12/29 04:42:08;;;;;;;0.40;0.05;;;17.90;65.50;;;;;;7405167;19;19934;-63
2022/12/29 04:44:37;;;;;;;0.47;0.15;;;17.90;65.50;;;;;;7407801;19;19981;-65
2022/12/29 04:47:06;;;;;;;1.33;1.25;;;17.90;65.50;;;;;;7403793;19;19947;-63
2022/12/29 04:49:35;;;;;;;0.52;0.10;;;17.90;65.60;;;;;;7404984;19;19919;-63
2022/12/29 04:52:05;;;;;;;0.30;0.10;;;17.90;65.60;;;;;;7404617;19;19938;-63
2022/12/29 04:54:36;;;;;;;0.70;0.43;;;17.90;65.70;;;;;;7405260;19;20272;-63
2022/12/29 04:57:06;;;;;;;0.60;0.30;;;17.80;65.70;;;;;;7405395;19;19922;-64
2022/12/29 04:59:35;;;;;;;0.35;0.20;;;17.80;65.70;;;;;;7405021;19;19947;-63
2022/12/29 05:02:05;;;;;;;0.38;0.10;;;17.80;65.70;;;;;;7404817;19;19911;-63
2022/12/29 05:04:34;;;;;;;0.40;0.00;;;17.70;65.70;;;;;;7404305;19;20389;-63
2022/12/29 05:07:03;;;;;;;0.35;0.03;;;17.70;65.80;;;;;;7404829;19;19911;-64
2022/12/29 05:09:32;;;;;;;0.82;0.10;;;17.70;65.90;;;;;;7404189;19;19938;-63
2022/12/29 05:12:04;;;;;;;0.47;0.10;;;17.70;65.90;;;;;;7404488;19;19922;-63
2022/12/29 05:14:42;;;;;;;0.60;0.10;;;17.60;65.90;;;;;;7404191;19;19925;-63
2022/12/29 05:17:11;;;;;;;1.05;0.15;;;17.60;66.00;;;;;;7403914;19;19918;-64
2022/12/29 05:19:40;;;;;;;0.75;0.10;;;17.60;66.10;;;;;;7403075;19;19914;-63
2022/12/29 05:22:09;;;;;;;;;;;17.50;66.00;;;;;;7406138;19;19914;-63
2022/12/29 05:24:39;;;;;;;0.90;0.10;;;17.50;66.10;;;;;;7404021;19;19922;-63
2022/12/29 05:27:11;;;;;;;0.85;0.40;;;17.50;66.10;;;;;;7404079;19;19942;-63
2022/12/29 05:29:40;;;;;;;0.32;0.00;;;17.50;66.10;;;;;;7402974;19;19921;-63
2022/12/29 05:32:09;;;;;;;0.70;0.10;;;17.50;66.10;;;;;;7403077;19;19918;-63
2022/12/29 05:34:38;;;;;;;0.55;0.08;;;17.50;66.10;;;;;;7403429;19;19954;-63
2022/12/29 05:37:08;;;;;;;0.88;0.13;;;17.50;66.20;;;;;;7403727;19;20256;-64
2022/12/29 05:39:37;;;;;;;1.13;0.40;;;17.50;66.10;;;;;;7404749;19;19935;-63
2022/12/29 05:42:06;;;;;;;0.40;0.10;;;17.60;66.10;;;;;;7410857;19;19978;-63
2022/12/29 05:44:38;;;;;;;0.70;0.00;;;17.60;66.10;;;;;;7409905;19;19996;-63
2022/12/29 05:47:07;;;;;;;0.30;0.00;;;17.60;66.10;;;;;;7409982;19;19986;-63
2022/12/29 05:49:36;;;;;;;0.98;0.45;;;17.70;66.10;;;;;;7409779;19;20262;-63
2022/12/29 05:52:06;;;;;;;0.50;0.20;;;17.70;66.00;;;;;;7409865;19;19922;-64
2022/12/29 05:54:35;;;;;;;0.82;0.10;;;17.80;66.00;;;;;;7409706;19;19918;-63
2022/12/29 05:57:04;;;;;;;1.02;0.10;;;17.80;66.00;;;;;;7409864;19;19918;-64
2022/12/29 05:59:33;;;;;;;0.32;0.10;;;17.90;66.00;;;;;;7409733;19;19914;-63
2022/12/29 06:02:06;;;;;;;0.73;0.10;;;17.90;65.80;;;;;;7409618;19;19926;-64
2022/12/29 06:04:35;;;;;;;0.93;0.38;;;17.90;65.70;;;;;;7409507;19;20362;-63
2022/12/29 06:07:04;;;;;;;1.25;0.10;;;18.00;65.70;;;;;;7409479;19;20371;-63
2022/12/29 06:09:33;;;;;;;0.70;0.32;;;18.00;65.60;;;;;;7409394;19;20357;-63
2022/12/29 06:12:02;;;;;;;1.42;0.40;;;18.00;65.60;;;;;;7409116;19;20322;-63
2022/12/29 06:14:32;;;;;;;1.30;0.50;;;18.00;65.50;;;;;;7413377;19;19940;-63
2022/12/29 06:17:01;;;;;;;0.60;0.10;;;18.00;65.50;;;;;;7409320;19;19939;-63
2022/12/29 06:19:33;;;;;;;0.90;0.10;;;18.00;65.50;;;;;;7408787;19;19982;-63
2022/12/29 06:22:02;;;;;;;1.20;0.17;;;18.00;65.50;;;;;;7409232;19;19978;-63
2022/12/29 06:24:32;;;;;;;1.20;0.40;;;18.00;65.50;;;;;;7408947;19;20236;-64
2022/12/29 06:27:07;;;;;;;1.42;0.22;;;17.90;65.40;;;;;;7409169;19;20347;-63
2022/12/29 06:29:36;;;;;;;1.27;0.38;;;17.90;65.40;;;;;;7407028;19;19915;-63
2022/12/29 06:32:26;;;;;;;0.93;0.20;;;17.90;65.40;;;;;;7407251;19;19921;-63
2022/12/29 06:35:18;;;;;;;0.93;0.20;;;17.90;65.40;;;;;;7407548;19;19922;-63
2022/12/29 06:38:07;;;;;;;0.65;0.10;;;17.90;65.40;;;;;;7407165;19;19948;-63
2022/12/29 06:40:56;;;;;;;1.27;0.60;;;17.90;65.50;;;;;;7407990;19;19930;-63
2022/12/29 06:43:45;;;;;;;1.23;0.30;;;17.80;65.50;;;;;;7407196;19;19926;-63
2022/12/29 06:46:34;;;;;;;0.90;0.50;;;17.80;65.50;;;;;;7406946;19;19922;-63
2022/12/29 06:49:23;;;;;;;1.38;0.40;;;17.80;65.60;;;;;;7406503;19;19910;-64
2022/12/29 06:51:55;;;;;;;1.13;0.38;;;17.70;65.60;;;;;;7407198;19;20240;-63
2022/12/29 06:54:24;;;;;;;1.10;0.40;;;17.70;65.60;;;;;;7405687;19;19922;-63
2022/12/29 06:56:53;;;;;;;0.85;0.15;;;17.70;65.70;;;;;;7406629;19;19919;-63
2022/12/29 06:59:22;;;;;;;1.27;0.43;;;17.60;65.70;;;;;;7408167;19;20276;-63
2022/12/29 07:01:51;;;;;;;1.00;0.30;;;17.60;65.70;;;;;;7407875;19;19943;-63
2022/12/29 07:04:24;;;;;;;0.95;0.30;;;17.60;65.80;;;;;;7407803;19;20352;-64
2022/12/29 07:06:55;;;;;;;1.10;0.03;;;17.60;65.90;;;;;;7407835;19;19914;-63
2022/12/29 07:09:25;;;;;;;1.65;0.57;;;17.50;65.80;;;;;;7407798;19;19914;-63
2022/12/29 07:11:54;;;;;;;0.88;0.30;;;17.50;65.80;;;;;;7409218;19;19921;-63
2022/12/29 07:14:23;;;;;;;0.38;0.00;;;17.50;65.90;;;;;;7405816;19;20359;-64
2022/12/29 07:16:52;;;;;;;1.20;0.35;;;17.50;65.80;;;;;;7407615;19;20347;-63
2022/12/29 07:19:21;;;;;;;1.25;0.20;;;17.50;65.80;;;;;;7406974;19;19938;-64
2022/12/29 07:21:57;;;;;;;1.65;0.40;;;17.50;65.80;;;;;;7407346;19;20319;-63
2022/12/29 07:24:27;;;;;;;1.92;0.35;;;17.60;65.80;;;;;;7407864;19;19926;-63
2022/12/29 07:26:56;;;;;;;1.38;0.40;;;17.60;65.80;;;;;;7405404;19;19911;-63
2022/12/29 07:29:25;;;;;;;0.98;0.13;;;17.60;65.70;;;;;;7405529;19;19978;-64
2022/12/29 07:31:54;;;;;;;1.55;0.20;;;17.60;65.70;;;;;;7407306;19;19918;-63
2022/12/29 07:34:24;;;;;;;1.92;0.43;;;17.60;65.70;;;;;;7406225;19;19918;-63
2022/12/29 07:36:55;;;;;;;2.60;0.50;;;17.70;65.60;;;;;;7407666;19;19914;-63
2022/12/29 07:39:25;;;;;;;1.77;0.70;;;17.70;65.60;;;;;;7406576;19;20274;-63
2022/12/29 07:41:54;;;;;;;1.20;0.45;;;17.80;65.50;;;;;;7411945;19;19923;-63
2022/12/29 07:44:23;;;;;;;0.63;0.40;;;17.80;65.40;;;;;;7407043;19;19918;-63
2022/12/29 07:46:52;;;;;;;1.38;0.45;;;17.90;65.40;;;;;;7407355;19;20282;-63
2022/12/29 07:49:21;;;;;;;1.38;0.55;;;17.90;65.30;;;;;;7405438;19;20256;-64
2022/12/29 07:51:50;;;;;;;1.42;0.40;;;17.90;65.20;;;;;;7406526;19;20327;-63
2022/12/29 07:54:23;;;;;;;1.67;0.80;;;17.90;65.10;;;;;;7405416;19;19918;-63
2022/12/29 07:56:53;;;;;;;1.52;0.10;;;18.00;65.10;;;;;;7406942;19;19918;-64
2022/12/29 07:59:21;;;;;;;;;;;17.90;65.00;;;;;;7408961;19;19935;-63
2022/12/29 08:01:51;;;;;;;0.90;0.13;;;17.90;65.60;;;;;;7406199;19;19974;-63
2022/12/29 08:04:21;;;;;;;1.23;0.57;;;18.00;65.10;;;;;;7402774;19;19939;-63
2022/12/29 08:06:50;;;;;;;3.10;1.73;;;17.90;64.90;;;;;;7405890;19;19922;-63
2022/12/29 08:09:21;;;;;;;1.48;0.50;;;17.90;65.00;;;;;;7406071;19;19922;-63
2022/12/29 08:11:51;;;;;;;2.38;0.17;;;17.90;64.90;;;;;;7410864;19;20343;-63
2022/12/29 08:14:21;;;;;;;1.67;0.32;;;17.90;65.00;;;;;;7405100;19;19922;-64
2022/12/29 08:16:50;;;;;;;2.85;0.10;;;17.90;64.90;;;;;;7405871;19;19915;-63
2022/12/29 08:19:19;;;;;;;1.77;0.30;;;17.90;64.90;;;;;;7405392;19;20336;-63
2022/12/29 08:21:48;;;;;;;0.80;0.10;;;17.80;64.90;;;;;;7405823;19;19922;-63
2022/12/29 08:24:17;;;;;;;1.35;0.38;;;17.80;64.90;;;;;;7405948;19;19919;-63
2022/12/29 08:26:49;;;;;;;1.85;0.77;;;17.80;64.90;;;;;;7406202;19;19942;-64
2022/12/29 08:29:19;;;;;;;1.30;0.38;;;17.80;64.90;;;;;;7404248;19;19978;-63
2022/12/29 08:31:48;;;;;;;1.58;0.10;;;17.80;64.90;;;;;;7405405;19;19918;-63
2022/12/29 08:34:17;;;;;;;1.63;0.20;;;17.70;64.90;;;;;;7403638;19;19927;-63
2022/12/29 08:36:46;;;;;;;1.63;0.40;;;17.70;64.90;;;;;;7406027;19;19926;-63
2022/12/29 08:39:27;;;;;;;1.30;0.38;;;17.70;65.00;;;;;;7406536;19;19942;-63
2022/12/29 08:41:59;;;;;;;1.85;0.40;;;17.60;65.00;;;;;;7403378;19;19928;-63
2022/12/29 08:44:28;;;;;;;1.52;0.20;;;17.60;65.00;;;;;;7405021;19;19919;-63
2022/12/29 08:46:57;;;;;;;1.92;0.28;;;17.60;65.10;;;;;;7405330;19;19915;-64
2022/12/29 08:49:26;;;;;;;1.98;0.40;;;17.50;65.10;;;;;;7405341;19;19936;-63
2022/12/29 08:51:56;;;;;;;2.50;0.30;;;17.60;65.10;;;;;;7405125;19;19927;-63
2022/12/29 08:54:25;;;;;;;2.53;0.70;;;17.50;65.10;;;;;;7403412;19;20282;-63
2022/12/29 08:56:54;;;;;;;2.08;0.22;;;17.50;65.20;;;;;;7404838;19;19937;-63
2022/12/29 08:59:26;;;;;;;2.67;0.30;;;17.50;65.20;;;;;;7404755;19;19956;-64
2022/12/29 09:01:55;;;;;;;2.28;0.30;;;17.50;65.10;;;;;;7404813;19;19918;-65
2022/12/29 09:04:27;;;;;;;1.55;0.25;;;17.50;65.20;;;;;;7404359;19;19941;-63
2022/12/29 09:06:56;;;;;;;1.17;0.10;;;17.50;65.10;;;;;;7404472;19;19921;-64
2022/12/29 09:09:25;;;;;;;2.72;0.28;;;17.50;65.00;;;;;;7407251;19;19922;-63
2022/12/29 09:11:54;;;;;;;1.98;0.70;;;17.60;65.10;;;;;;7404432;19;19933;-63
2022/12/29 09:14:35;;;;;;;1.67;0.40;;;17.60;65.00;;;;;;7401950;19;19927;-63
2022/12/29 09:19:47;;;;;;;1.75;0.22;;;17.70;64.90;;;;;;7401579;19;20347;-64
2022/12/29 09:22:16;;;;;;;2.95;0.77;;;17.70;64.70;;;;;;7404291;19;19946;-64
2022/12/29 09:24:47;;;;;;;2.10;0.28;;;17.80;64.80;;;;;;7404132;19;19925;-63
2022/12/29 09:27:16;;;;;;;1.60;0.30;;;17.80;64.70;;;;;;7404028;19;20391;-63
2022/12/29 09:29:48;;;;;;;2.58;0.20;;;17.90;64.80;;;;;;7400380;19;20399;-64
2022/12/29 09:32:17;;;;;;;2.72;0.77;;;17.90;64.50;;;;;;7404122;19;19915;-64
2022/12/29 09:34:46;;;;;;;1.40;0.22;;;18.00;64.40;;;;;;7406753;19;19922;-63
2022/12/29 09:37:15;;;;;;;3.88;0.60;;;18.00;64.30;;;;;;7403464;19;20462;-64
2022/12/29 09:39:44;;;;;;;2.25;0.30;;;18.10;64.60;;;;;;7408706;19;20340;-63
2022/12/29 09:42:22;;;;;;;1.80;0.10;;;18.00;64.20;;;;;;7403235;19;20342;-63
2022/12/29 09:45:07;;;;;;;3.40;0.90;;;18.00;64.20;;;;;;7403638;19;20259;-63
2022/12/29 09:47:36;;;;;;;1.23;0.40;;;18.10;64.30;;;;;;7403062;19;19915;-64
2022/12/29 09:50:07;;;;;;;;;;;18.00;64.20;;;;;;7404205;19;19914;-64
2022/12/29 09:52:49;;;;;;;2.92;0.38;;;18.00;64.20;;;;;;7403120;19;20000;-63
2022/12/29 09:55:19;;;;;;;;;;;18.00;64.30;;;;;;7403751;19;19918;-63
2022/12/29 09:57:52;;;;;;;2.42;0.22;;;18.00;64.30;;;;;;7403449;19;19939;-64
2022/12/29 10:00:29;;;;;;;3.58;0.30;;;17.90;64.30;;;;;;7403413;19;19914;-63
2022/12/29 10:03:05;;;;;;;1.42;0.20;;;17.90;64.20;;;;;;7402733;19;19926;-63
2022/12/29 10:05:45;;;;;;;2.60;0.43;;;17.90;64.30;;;;;;7402921;19;20257;-64
2022/12/29 10:08:26;;;;;;;2.15;0.45;;;17.90;64.30;;;;;;7405365;19;19922;-63
2022/12/29 10:10:59;;;;;;;2.80;0.30;;;17.80;64.20;;;;;;7402587;19;20002;-63
2022/12/29 10:13:36;;;;;;;3.60;0.90;;;17.80;64.30;;;;;;7402235;19;19919;-63
2022/12/29 10:16:13;;;;;;;2.35;0.50;;;17.80;64.40;;;;;;7402544;19;19915;-63
2022/12/29 10:19:13;;;;;;;2.28;0.28;;;17.80;64.40;;;;;;7402216;19;20253;-64
2022/12/29 10:21:57;;;;;;;3.05;0.32;;;17.70;64.40;;;;;;7399989;19;19918;-64
2022/12/29 10:24:29;;;;;;;3.28;0.30;;;17.70;64.50;;;;;;7402963;19;19945;-63
2022/12/29 10:27:01;;;;;;;2.85;0.70;;;17.70;64.50;;;;;;7404616;19;19919;-63
2022/12/29 10:29:38;;;;;;;2.35;0.70;;;17.60;64.60;;;;;;7405912;19;20331;-63
2022/12/29 10:32:23;;;;;;;2.22;1.00;;;17.60;64.60;;;;;;7408925;19;19914;-63
2022/12/29 10:34:58;;;;;;;2.05;0.22;;;17.60;64.70;;;;;;7407287;19;19910;-63
2022/12/29 10:37:45;;;;;;;1.48;0.82;;;17.60;64.80;;;;;;7411289;19;20365;-63
2022/12/29 10:40:22;;;;;;;2.70;0.98;;;17.50;64.90;;;;;;7409203;19;20247;-64
2022/12/29 10:42:55;;;;;;;1.20;0.32;;;17.50;64.90;;;;;;7407313;19;20375;-64
2022/12/29 10:45:28;;;;;;;2.20;0.60;;;17.50;64.90;;;;;;7408292;19;20276;-63
2022/12/29 10:48:04;;;;;;;1.83;0.57;;;17.50;64.90;;;;;;7408834;19;19918;-63
2022/12/29 10:50:33;;;;;;;2.67;0.50;;;17.50;64.90;;;;;;7408400;19;19915;-63
2022/12/29 10:53:05;;;;;;;2.15;0.52;;;17.50;64.90;;;;;;7408337;19;19923;-63
2022/12/29 10:55:39;;;;;;;2.03;0.22;;;17.40;64.80;;;;;;7406448;19;19982;-63
2022/12/29 10:58:13;;;;;;;1.45;0.22;;;17.50;64.90;;;;;;7409434;19;19915;-64
2022/12/29 11:00:42;;;;;;;2.20;0.20;;;17.60;65.00;;;;;;7409121;19;19919;-63
2022/12/29 11:03:46;;;;;;;3.70;0.55;;;17.50;64.90;;;;;;7407957;19;19952;-64
2022/12/29 11:06:23;;;;;;;2.30;0.60;;;17.60;65.00;;;;;;7409474;19;20340;-64
2022/12/29 11:08:58;;;;;;;1.95;0.20;;;17.60;64.90;;;;;;7408451;19;19917;-63
2022/12/29 11:11:29;;;;;;;2.30;0.17;;;17.60;64.80;;;;;;7407725;19;20352;-63
2022/12/29 11:14:01;;;;;;;3.70;0.50;;;17.70;64.80;;;;;;7407226;19;19942;-63
2022/12/29 11:16:36;;;;;;;1.55;0.10;;;17.80;64.80;;;;;;7408265;19;19921;-63
2022/12/29 11:19:08;;;;;;;1.45;0.15;;;17.80;64.70;;;;;;7407349;19;19938;-63
2022/12/29 11:21:41;;;;;;;2.33;0.10;;;17.90;64.60;;;;;;7407515;19;20347;-63
2022/12/29 11:24:23;;;;;;;2.20;0.30;;;17.90;64.50;;;;;;7407416;19;19923;-63
2022/12/29 11:26:57;;;;;;;2.42;0.17;;;17.90;64.40;;;;;;7407951;19;19981;-63
2022/12/29 11:29:29;;;;;;;1.52;0.17;;;18.00;64.40;;;;;;7405944;19;19914;-63
2022/12/29 11:32:14;;;;;;;1.58;0.30;;;18.00;64.30;;;;;;7407314;19;19919;-64
2022/12/29 11:34:46;;;;;;;2.55;0.32;;;18.00;64.30;;;;;;7405917;19;19939;-63
2022/12/29 11:37:19;;;;;;;2.45;0.28;;;18.00;64.40;;;;;;7406707;19;19938;-63
2022/12/29 11:39:56;;;;;;;2.55;0.35;;;18.00;64.30;;;;;;7407291;19;19914;-63
2022/12/29 11:42:36;;;;;;;2.05;0.43;;;18.00;64.30;;;;;;7406897;19;19915;-63
2022/12/29 11:45:09;;;;;;;2.00;0.22;;;18.00;64.40;;;;;;7406673;19;19925;-63
2022/12/29 11:47:46;;;;;;;1.83;0.40;;;17.90;64.30;;;;;;7407070;19;19910;-63
2022/12/29 11:50:41;;;;;;;4.50;0.63;;;17.90;64.40;;;;;;7405100;19;19918;-64
2022/12/29 11:53:36;;;;;;;2.53;0.90;;;17.90;64.40;;;;;;7405276;19;19925;-63
2022/12/29 11:56:38;;;;;;;1.90;1.27;;;17.90;64.50;;;;;;7405139;19;20332;-65
2022/12/29 11:59:44;;;;;;;1.90;0.40;;;17.90;64.50;;;;;;7404961;19;19926;-63
2022/12/29 12:02:43;;;;;;;2.10;0.35;;;17.90;64.50;;;;;;7402932;19;19985;-63
2022/12/29 12:05:44;;;;;;;2.30;0.65;;;17.90;64.60;;;;;;7405424;19;20369;-64
2022/12/29 12:08:39;;;;;;;2.38;0.90;;;17.90;64.70;;;;;;7400940;19;20346;-64
2022/12/29 12:11:36;;;;;;;3.90;0.38;;;17.80;64.70;;;;;;7405403;19;20257;-65
2022/12/29 12:14:32;;;;;;;3.90;0.60;;;17.80;64.80;;;;;;7405016;19;19985;-63
2022/12/29 12:17:27;;;;;;;2.42;1.40;;;17.80;65.00;;;;;;7405598;19;19978;-64
2022/12/29 12:20:21;;;;;;;1.70;0.55;;;17.80;65.00;;;;;;7402475;19;20311;-63
2022/12/29 12:23:22;;;;;;;5.80;0.68;;;17.80;65.20;;;;;;7403781;19;20252;-64
2022/12/29 12:26:16;;;;;;;5.43;0.40;;;17.80;65.30;;;;;;7408777;19;19923;-63
2022/12/29 12:29:13;;;;;;;8.13;0.68;;;17.80;65.40;;;;;;7403932;19;19929;-62
2022/12/29 12:32:07;;;;;;;3.90;0.73;;;17.90;65.60;;;;;;7403960;19;19918;-62
2022/12/29 12:34:56;;;;;;;4.18;0.22;;;17.80;65.50;;;;;;7402376;19;19933;-63
2022/12/29 12:38:06;;;;;;;5.28;0.40;;;17.80;65.60;;;;;;7407294;19;19978;-63
2022/12/29 12:40:59;;;;;;;2.30;0.30;;;17.80;65.80;;;;;;7409963;19;19944;-63
2022/12/29 12:43:44;;;;;;;2.50;0.35;;;17.80;66.00;;;;;;7403533;19;19921;-63
2022/12/29 12:46:31;;;;;;;3.22;0.47;;;17.70;66.10;;;;;;7406521;19;20303;-62
2022/12/29 12:49:32;;;;;;;3.45;0.52;;;17.70;66.20;;;;;;7405865;19;19932;-63
2022/12/29 12:52:08;;;;;;;3.28;0.32;;;17.70;66.40;;;;;;7406062;19;19914;-62
2022/12/29 12:54:54;;;;;;;3.55;0.73;;;17.60;66.40;;;;;;7406803;19;19922;-63
2022/12/29 12:57:38;;;;;;;3.20;0.32;;;17.60;67.10;;;;;;7405033;19;20374;-63
2022/12/29 13:00:13;;;;;;;5.47;0.82;;;17.60;66.60;;;;;;7409058;19;20366;-63
2022/12/29 13:02:55;;;;;;;2.88;0.63;;;17.60;66.60;;;;;;7404090;19;19915;-63
2022/12/29 13:05:34;;;;;;;5.68;0.35;;;17.60;66.70;;;;;;7406650;19;19938;-63
2022/12/29 13:08:25;;;;;;;2.92;0.82;;;17.60;66.80;;;;;;7405266;19;19915;-63
2022/12/29 13:11:00;;;;;;;1.35;0.50;;;17.60;66.80;;;;;;7404482;19;19950;-63
2022/12/29 13:13:53;;;;;;;4.60;0.70;;;17.60;66.80;;;;;;7408114;19;20335;-62
2022/12/29 13:16:30;;;;;;;4.32;0.43;;;17.60;67.00;;;;;;7402626;19;20389;-62
2022/12/29 13:19:06;;;;;;;3.45;0.40;;;17.60;67.00;;;;;;7403722;19;19910;-63
2022/12/29 13:21:49;;;;;;;2.05;0.30;;;17.60;67.10;;;;;;7404193;19;19929;-63
2022/12/29 13:24:26;;;;;;;3.53;1.20;;;17.60;67.20;;;;;;7407328;19;20256;-62
2022/12/29 13:27:02;;;;;;;2.75;0.57;;;17.60;67.20;;;;;;7408260;19;19910;-62
2022/12/29 13:29:39;;;;;;;4.57;1.15;;;17.60;67.30;;;;;;7404643;19;19918;-62
2022/12/29 13:32:31;;;;;;;6.00;0.73;;;17.60;67.40;;;;;;7403131;19;19945;-62
2022/12/29 13:35:14;;;;;;;3.55;0.95;;;17.60;67.80;;;;;;7406288;19;20023;-62
2022/12/29 13:37:52;;;;;;;8.57;0.82;;;17.60;68.30;;;;;;7403421;19;19935;-62
2022/12/29 13:40:26;;;;;;;3.20;0.70;;;17.60;68.40;;;;;;7403727;19;19935;-62
2022/12/29 13:42:57;;;;;;;3.08;0.40;;;17.60;68.20;;;;;;7405755;19;19919;-62
2022/12/29 13:45:35;;;;;;;3.78;0.50;;;17.60;68.20;;;;;;7403589;19;20363;-62
2022/12/29 13:48:09;;;;;;;6.20;0.88;;;17.50;68.20;;;;;;7402458;19;19914;-63
2022/12/29 13:50:42;;;;;;;4.30;0.95;;;17.50;68.30;;;;;;7405430;19;19918;-62
2022/12/29 13:53:21;;;;;;;4.63;0.32;;;17.50;68.40;;;;;;7314438;19;19936;-62
2022/12/29 13:55:55;;;;;;;6.05;0.40;;;17.50;68.50;;;;;;7402194;19;19926;-63
2022/12/29 13:58:37;;;;;;;4.10;0.77;;;17.50;68.40;;;;;;7403565;19;19953;-63
2022/12/29 14:01:14;;;;;;;4.10;0.30;;;17.50;68.50;;;;;;7406404;19;19915;-64
2022/12/29 14:03:54;;;;;;;5.20;0.43;;;17.50;68.40;;;;;;7411108;19;20359;-63
2022/12/29 14:06:26;;;;;;;4.45;0.63;;;17.60;68.30;;;;;;7411172;19;19914;-64
2022/12/29 14:08:58;;;;;;;5.10;0.75;;;17.60;68.20;;;;;;7410603;19;19926;-65